Time;durP1;ratioP1;P1;durP2;ratioP2;P2;SDS_P1;SDS_P2;PMS_P1;PMS_P2;Temp;Humidity;BMP_temperature;BMP_pressure;BME280_temperature;BME280_humidity;BME280_pressure;Samples;Min_cycle;Max_cycle;Signal;HPM_P1;HPM_P2
2021/01/11 00:02:22;;;;;;;18.63;8.70;;;;;;;1.59;70.09;100786.23;1640648;86;23583;-64
2021/01/11 00:04:47;;;;;;;17.15;7.87;;;;;;;1.51;71.45;100779.28;1638285;86;21236;-65
2021/01/11 00:07:13;;;;;;;14.35;7.47;;;;;;;1.55;71.19;100779.03;1639439;86;27987;-64
2021/01/11 00:09:39;;;;;;;17.25;8.33;;;;;;;1.66;71.47;100778.92;1639216;86;21234;-64
2021/01/11 00:12:06;;;;;;;15.30;7.67;;;;;;;1.71;72.13;100779.06;1639237;86;21061;-64
2021/01/11 00:14:32;;;;;;;17.00;7.92;;;;;;;1.58;69.33;100787.15;1639427;86;21683;-64
2021/01/11 00:16:57;;;;;;;15.63;7.50;;;;;;;1.59;70.42;100781.03;1646186;85;21614;-63
2021/01/11 00:19:23;;;;;;;14.65;7.25;;;;;;;1.63;70.26;100783.00;1637420;86;29260;-64
2021/01/11 00:21:49;;;;;;;15.90;7.70;;;;;;;1.68;70.59;100786.18;1634582;86;25214;-64
2021/01/11 00:24:15;;;;;;;15.17;7.80;;;;;;;1.70;70.74;100776.07;1634399;86;22207;-64
2021/01/11 00:26:53;;;;;;;15.17;7.80;;;;;;;1.72;70.38;100777.29;1634627;86;21546;-64
2021/01/11 00:29:19;;;;;;;16.57;8.03;;;;;;;1.74;69.83;100779.34;1635053;86;21231;-65
2021/01/11 00:31:45;;;;;;;16.07;8.37;;;;;;;1.78;69.74;100786.07;1634445;86;21148;-64
2021/01/11 00:34:11;;;;;;;16.23;8.35;;;;;;;1.75;69.58;100783.16;1634439;86;25363;-63
2021/01/11 00:36:37;;;;;;;16.95;8.80;;;;;;;1.75;69.56;100784.46;1634666;86;21643;-63
2021/01/11 00:39:03;;;;;;;13.62;8.45;;;;;;;1.81;70.32;100779.86;1635305;86;21261;-64
2021/01/11 00:41:29;;;;;;;16.20;8.73;;;;;;;1.75;70.07;100785.77;1634632;86;21055;-63
2021/01/11 00:43:55;;;;;;;15.60;8.60;;;;;;;1.76;70.26;100786.63;1634347;86;27924;-63
2021/01/11 00:46:24;;;;;;;17.67;8.80;;;;;;;1.79;70.80;100792.50;1635226;86;25242;-62
2021/01/11 00:48:50;;;;;;;16.95;9.83;;;;;;;1.83;70.92;100789.73;1636385;86;22166;-64
2021/01/11 00:51:16;;;;;;;22.70;11.07;;;;;;;1.87;71.19;100791.25;1634453;86;21572;-64
2021/01/11 00:53:44;;;;;;;18.30;9.73;;;;;;;1.71;70.32;100796.43;1633776;86;21888;-63
2021/01/11 00:56:14;;;;;;;19.90;11.05;;;;;;;1.77;71.41;100805.21;1634232;86;21766;-64
2021/01/11 00:58:40;;;;;;;19.48;11.18;;;;;;;1.64;70.68;100803.73;1636362;86;21196;-64
2021/01/11 01:01:07;;;;;;;20.63;10.80;;;;;;;1.68;71.11;100802.66;1634137;86;21072;-63
2021/01/11 01:03:34;;;;;;;22.22;11.43;;;;;;;1.65;70.97;100805.43;1634573;86;21273;-65
2021/01/11 01:06:00;;;;;;;22.93;11.48;;;;;;;1.68;71.10;100806.56;1634553;86;21279;-64
2021/01/11 01:08:26;;;;;;;24.27;12.03;;;;;;;1.66;71.45;100802.36;1635707;86;28826;-65
2021/01/11 01:10:52;;;;;;;22.07;11.43;;;;;;;1.65;71.17;100809.34;1634321;86;25528;-65
2021/01/11 01:13:17;;;;;;;22.60;11.90;;;;;;;1.65;71.40;100812.38;1635689;86;22195;-65
2021/01/11 01:15:43;;;;;;;21.80;11.57;;;;;;;1.67;71.51;100813.16;1634095;86;21644;-64
2021/01/11 01:18:09;;;;;;;22.27;11.50;;;;;;;1.69;71.32;100804.32;1634353;86;21051;-64
2021/01/11 01:20:35;;;;;;;28.47;13.50;;;;;;;1.73;72.00;100816.27;1611482;87;28108;-64
2021/01/11 01:23:01;;;;;;;27.83;14.43;;;;;;;1.71;71.72;100818.12;1614460;88;25712;-64
2021/01/11 01:25:26;;;;;;;26.60;13.40;;;;;;;1.56;71.39;100817.16;1604729;88;21756;-64
2021/01/11 01:27:52;;;;;;;26.63;13.90;;;;;;;1.55;71.82;100815.94;1607342;88;21612;-64
2021/01/11 01:30:19;;;;;;;28.73;15.30;;;;;;;1.61;72.51;100816.92;1608417;88;22840;-63
2021/01/11 01:32:45;;;;;;;31.17;15.63;;;;;;;1.66;72.65;100811.00;1609160;88;21337;-63
2021/01/11 01:35:11;;;;;;;32.47;15.97;;;;;;;1.73;72.42;100805.02;1609197;88;25269;-63
2021/01/11 01:37:37;;;;;;;32.63;16.20;;;;;;;1.69;72.49;100800.89;1609479;88;21250;-63
2021/01/11 01:40:05;;;;;;;34.73;16.87;;;;;;;1.67;72.83;100805.34;1606934;88;21565;-63
2021/01/11 01:42:30;;;;;;;;;;;;;;;1.61;72.86;100799.53;1618058;88;21698;-63
2021/01/11 01:44:56;;;;;;;33.53;16.52;;;;;;;1.57;72.93;100802.38;1606443;88;20222;-63
2021/01/11 01:47:22;;;;;;;37.90;18.07;;;;;;;1.39;73.50;100800.31;1604057;88;26254;-63
2021/01/11 01:49:49;;;;;;;36.47;17.40;;;;;;;1.32;73.92;100802.41;1610017;88;21618;-64
2021/01/11 01:52:14;;;;;;;35.68;17.23;;;;;;;1.43;74.44;100798.77;1606011;88;21498;-63
2021/01/11 01:54:40;;;;;;;35.40;17.63;;;;;;;1.51;74.29;100804.00;1605965;88;22516;-64
2021/01/11 01:57:06;;;;;;;37.17;18.30;;;;;;;1.56;74.06;100804.15;1605072;88;29921;-64
2021/01/11 01:59:32;;;;;;;35.95;17.98;;;;;;;1.58;74.36;100796.26;1611645;88;21234;-64
2021/01/11 02:01:59;;;;;;;39.53;19.40;;;;;;;1.49;73.88;100796.75;1608255;88;22009;-65
2021/01/11 02:04:25;;;;;;;37.03;17.73;;;;;;;1.42;74.40;100795.77;1609540;88;21242;-65
2021/01/11 02:06:57;;;;;;;35.83;17.57;;;;;;;1.47;74.48;100799.91;1608709;88;20987;-65
2021/01/11 02:09:37;;;;;;;34.75;18.52;;;;;;;1.50;74.27;100793.23;1613114;88;21190;-65
2021/01/11 02:12:07;;;;;;;33.58;16.80;;;;;;;1.53;74.72;100786.56;1603661;88;21234;-65
2021/01/11 02:15:04;;;;;;;39.78;18.95;;;;;;;1.55;74.72;100783.41;1607485;88;21244;-66
2021/01/11 02:17:33;;;;;;;35.75;17.15;;;;;;;1.55;74.40;100786.02;1609205;88;21230;-65
2021/01/11 02:20:20;;;;;;;37.38;18.55;;;;;;;1.60;74.63;100783.98;1622544;84;21214;-65
2021/01/11 02:23:29;;;;;;;36.40;17.40;;;;;;;1.44;74.55;100776.17;1635255;86;21278;-65
2021/01/11 02:26:19;;;;;;;39.55;17.75;;;;;;;1.52;74.83;100774.46;1633180;86;21608;-65
2021/01/11 02:29:33;;;;;;;34.03;16.60;;;;;;;1.52;74.61;100766.66;1633552;86;21632;-65
2021/01/11 02:31:59;;;;;;;43.05;19.15;;;;;;;1.57;74.53;100763.33;1633203;86;21825;-64
2021/01/11 02:34:26;;;;;;;39.47;18.10;;;;;;;1.35;74.48;100760.61;1633898;86;20997;-64
2021/01/11 02:36:52;;;;;;;31.25;16.23;;;;;;;1.32;74.73;100759.91;1635589;86;21321;-65
2021/01/11 02:39:18;;;;;;;35.63;18.50;;;;;;;1.40;75.27;100755.98;1633309;86;26220;-64
2021/01/11 02:41:43;;;;;;;34.13;17.40;;;;;;;1.48;75.01;100754.28;1636169;86;21282;-64
2021/01/11 02:44:09;;;;;;;35.00;17.07;;;;;;;1.48;74.44;100762.09;1633657;86;23630;-64
2021/01/11 02:46:35;;;;;;;33.48;16.23;;;;;;;1.49;74.46;100768.13;1633667;86;21226;-65
2021/01/11 02:49:06;;;;;;;31.17;16.90;;;;;;;1.51;74.30;100760.62;1634687;86;24918;-64
2021/01/11 02:51:43;;;;;;;31.95;16.02;;;;;;;1.57;74.44;100765.94;1632436;86;21269;-65
2021/01/11 02:54:25;;;;;;;32.27;16.47;;;;;;;1.65;74.32;100761.17;1636777;86;21530;-65
2021/01/11 02:56:56;;;;;;;33.67;16.55;;;;;;;1.69;74.04;100762.66;1633954;86;21549;-64
2021/01/11 02:59:33;;;;;;;32.55;16.50;;;;;;;1.67;73.13;100754.58;1634102;86;21191;-65
2021/01/11 03:02:08;;;;;;;;;;;;;;;1.66;73.11;100763.30;1635906;86;21246;-65
2021/01/11 03:04:34;;;;;;;30.72;15.08;;;;;;;1.63;73.52;100757.80;1635724;86;20333;-64
2021/01/11 03:07:01;;;;;;;34.07;16.23;;;;;;;1.66;73.54;100758.93;1633694;86;21112;-64
2021/01/11 03:09:28;;;;;;;31.45;14.90;;;;;;;1.61;72.89;100751.84;1634842;86;24969;-64
2021/01/11 03:11:54;;;;;;;30.40;15.83;;;;;;;1.71;73.72;100750.42;1633818;86;21178;-64
2021/01/11 03:14:19;;;;;;;31.77;16.02;;;;;;;1.74;73.75;100754.16;1634028;86;21207;-65
2021/01/11 03:16:45;;;;;;;33.88;16.70;;;;;;;1.72;72.98;100751.25;1634162;86;25154;-64
2021/01/11 03:19:11;;;;;;;32.60;16.07;;;;;;;1.65;73.40;100746.00;1634550;86;21477;-64
2021/01/11 03:21:37;;;;;;;34.50;15.93;;;;;;;1.72;73.82;100744.75;1640620;86;23587;-64
2021/01/11 03:24:04;;;;;;;31.02;15.55;;;;;;;1.78;73.76;100741.33;1641287;86;22611;-64
2021/01/11 03:26:30;;;;;;;29.77;15.03;;;;;;;1.79;73.24;100739.11;1639995;86;21648;-65
2021/01/11 03:28:56;;;;;;;31.42;15.65;;;;;;;1.89;73.84;100737.30;1641632;86;25248;-63
2021/01/11 03:31:22;;;;;;;32.35;16.23;;;;;;;1.91;73.24;100727.63;1640601;86;21431;-64
2021/01/11 03:33:48;;;;;;;36.17;16.57;;;;;;;1.81;73.18;100733.82;1639786;86;22633;-64
2021/01/11 03:36:15;;;;;;;30.82;16.50;;;;;;;1.69;73.09;100730.59;1641150;86;21213;-64
2021/01/11 03:38:41;;;;;;;32.05;17.15;;;;;;;1.54;73.07;100731.82;1640748;86;21475;-65
2021/01/11 03:41:10;;;;;;;32.70;16.12;;;;;;;1.48;73.53;100730.85;1640001;85;27434;-64
2021/01/11 03:43:40;;;;;;;31.23;15.95;;;;;;;1.48;73.58;100730.02;1642245;86;21813;-66
2021/01/11 03:46:06;;;;;;;30.70;15.32;;;;;;;1.38;73.47;100725.31;1640396;86;21254;-64
2021/01/11 03:48:32;;;;;;;28.20;15.28;;;;;;;1.35;73.88;100721.58;1641834;86;21262;-64
2021/01/11 03:50:59;;;;;;;28.98;14.55;;;;;;;1.48;74.08;100724.81;1639823;86;21646;-64
2021/01/11 03:53:25;;;;;;;28.70;13.80;;;;;;;1.51;74.16;100724.18;1642323;85;21217;-64
2021/01/11 03:55:51;;;;;;;25.73;14.13;;;;;;;1.61;74.00;100721.43;1639602;86;21058;-64
2021/01/11 03:58:17;;;;;;;26.95;14.70;;;;;;;1.66;73.41;100717.27;1639870;86;21226;-65
2021/01/11 04:00:43;;;;;;;28.03;14.60;;;;;;;1.62;72.91;100714.48;1641298;86;21793;-64
2021/01/11 04:03:08;;;;;;;27.97;14.10;;;;;;;1.66;73.15;100712.54;1639837;86;28768;-64
2021/01/11 04:05:35;;;;;;;29.42;14.33;;;;;;;1.68;73.14;100714.14;1639999;86;27656;-64
2021/01/11 04:08:02;;;;;;;26.35;14.38;;;;;;;1.50;72.85;100713.85;1642104;86;22307;-65
2021/01/11 04:10:28;;;;;;;29.87;14.58;;;;;;;1.47;73.08;100710.95;1638533;86;21245;-66
2021/01/11 04:12:54;;;;;;;28.63;16.00;;;;;;;1.41;73.12;100709.54;1641695;86;21055;-66
2021/01/11 04:15:20;;;;;;;29.83;15.90;;;;;;;1.38;73.44;100704.50;1640059;86;27283;-65
2021/01/11 04:17:47;;;;;;;27.58;14.58;;;;;;;1.34;72.95;100705.58;1639992;86;27624;-65
2021/01/11 04:20:13;;;;;;;27.42;14.13;;;;;;;1.43;73.31;100703.78;1620475;86;21238;-65
2021/01/11 04:22:39;;;;;;;26.67;14.00;;;;;;;1.56;73.22;100701.80;1635174;86;22566;-64
2021/01/11 04:25:06;;;;;;;28.67;14.33;;;;;;;1.58;73.24;100697.34;1655683;84;21064;-63
2021/01/11 04:27:32;;;;;;;27.10;13.22;;;;;;;1.59;72.82;100696.43;1635755;86;21584;-64
2021/01/11 04:29:58;;;;;;;27.20;14.33;;;;;;;1.57;73.15;100686.55;1634847;86;27095;-66
2021/01/11 04:32:23;;;;;;;27.63;13.97;;;;;;;1.49;73.30;100688.30;1635158;86;21394;-65
2021/01/11 04:34:49;;;;;;;27.83;14.97;;;;;;;1.58;73.63;100689.06;1638581;86;22610;-64
2021/01/11 04:37:17;;;;;;;25.80;14.63;;;;;;;1.65;73.46;100694.79;1633109;86;20999;-64
2021/01/11 04:39:42;;;;;;;;;;;;;;;1.64;72.53;100691.80;1637661;86;21226;-64
2021/01/11 04:42:11;;;;;;;25.30;12.70;;;;;;;1.67;72.78;100685.59;1636062;86;20222;-64
2021/01/11 04:44:36;;;;;;;25.55;13.43;;;;;;;1.71;73.00;100687.08;1635237;86;21293;-64
2021/01/11 04:47:03;;;;;;;24.60;13.53;;;;;;;1.66;72.24;100676.92;1636996;86;22513;-64
2021/01/11 04:49:30;;;;;;;28.45;13.98;;;;;;;1.64;72.81;100680.55;1635103;86;21225;-65
2021/01/11 04:51:56;;;;;;;26.45;13.15;;;;;;;1.52;72.43;100679.46;1634322;86;22404;-64
2021/01/11 04:54:22;;;;;;;27.50;14.55;;;;;;;1.48;72.93;100677.50;1635766;86;21230;-65
2021/01/11 04:56:49;;;;;;;25.10;13.53;;;;;;;1.32;73.12;100678.81;1634204;86;21110;-65
2021/01/11 04:59:18;;;;;;;;;;;;;;;1.36;73.43;100671.20;1640725;86;21625;-64
2021/01/11 05:01:49;;;;;;;23.50;12.60;;;;;;;1.45;73.15;100676.84;1635131;86;20317;-64
2021/01/11 05:04:15;;;;;;;24.67;12.18;;;;;;;1.38;73.14;100682.82;1635384;86;21270;-64
2021/01/11 05:06:46;;;;;;;24.50;13.18;;;;;;;1.48;73.40;100685.78;1634956;86;25155;-64
2021/01/11 05:09:16;;;;;;;22.75;12.10;;;;;;;1.57;73.15;100685.24;1635812;86;21539;-64
2021/01/11 05:11:40;;;;;;;27.90;13.95;;;;;;;1.61;72.87;100673.75;1634144;86;21246;-64
2021/01/11 05:14:07;;;;;;;25.70;13.72;;;;;;;1.53;72.40;100678.55;1635380;86;21286;-64
2021/01/11 05:16:34;;;;;;;25.67;13.57;;;;;;;1.55;72.65;100680.59;1633557;86;21810;-64
2021/01/11 05:19:23;;;;;;;26.77;13.75;;;;;;;1.60;72.56;100681.17;1634613;86;21475;-64
2021/01/11 05:21:49;;;;;;;27.27;13.50;;;;;;;1.61;72.28;100681.55;1629596;86;21557;-64
2021/01/11 05:24:37;;;;;;;29.23;14.53;;;;;;;1.39;72.13;100678.84;1640605;86;21237;-63
2021/01/11 05:27:07;;;;;;;27.80;14.50;;;;;;;1.43;72.79;100677.75;1639950;86;21253;-64
2021/01/11 05:29:33;;;;;;;27.85;15.13;;;;;;;1.51;72.77;100676.03;1639700;85;21492;-64
2021/01/11 05:32:01;;;;;;;29.75;14.80;;;;;;;1.43;72.59;100677.75;1642377;85;25371;-64
2021/01/11 05:34:52;;;;;;;27.13;14.05;;;;;;;1.49;73.07;100677.03;1639979;86;21242;-64
2021/01/11 05:37:37;;;;;;;30.72;14.38;;;;;;;1.57;73.16;100667.02;1643084;86;21226;-65
2021/01/11 05:40:14;;;;;;;32.20;15.23;;;;;;;1.57;73.01;100664.42;1640098;85;21659;-65
2021/01/11 05:42:41;;;;;;;;;;;;;;;1.51;72.75;100663.02;1642729;86;21588;-65
2021/01/11 05:45:28;;;;;;;30.05;14.55;;;;;;;1.54;72.87;100665.89;1646521;85;20316;-65
2021/01/11 05:48:03;;;;;;;;;;;;;;;1.50;72.93;100664.41;1642453;86;21241;-64
2021/01/11 05:50:34;;;;;;;24.95;12.50;;;;;;;1.59;73.10;100665.19;1641789;86;20326;-63
2021/01/11 05:53:00;;;;;;;30.17;14.50;;;;;;;1.58;73.21;100668.23;1640534;86;21203;-64
2021/01/11 05:55:28;;;;;;;32.13;15.72;;;;;;;1.52;72.88;100665.15;1639955;86;27459;-64
2021/01/11 05:58:00;;;;;;;31.62;15.10;;;;;;;1.48;73.04;100667.56;1641635;86;21173;-64
2021/01/11 06:00:32;;;;;;;25.52;13.83;;;;;;;1.51;73.37;100665.62;1641809;86;21199;-63
2021/01/11 06:02:59;;;;;;;29.50;14.93;;;;;;;1.58;73.26;100672.14;1641618;85;21175;-64
2021/01/11 06:05:25;;;;;;;30.97;14.73;;;;;;;1.62;73.31;100666.33;1640722;86;21170;-64
2021/01/11 06:07:51;;;;;;;28.38;15.72;;;;;;;1.63;73.05;100669.28;1640003;86;21190;-63
2021/01/11 06:10:19;;;;;;;31.73;15.60;;;;;;;1.58;72.96;100669.54;1639889;85;21222;-64
2021/01/11 06:12:45;;;;;;;28.95;15.30;;;;;;;1.53;73.15;100675.95;1640314;86;22346;-64
2021/01/11 06:15:16;;;;;;;29.57;16.00;;;;;;;1.45;73.54;100675.54;1642337;86;21225;-64
2021/01/11 06:17:44;;;;;;;30.25;15.05;;;;;;;1.49;73.86;100670.52;1638584;86;21198;-65
2021/01/11 06:20:23;;;;;;;29.75;16.60;;;;;;;1.49;73.78;100672.69;1641732;86;21238;-65
2021/01/11 06:22:55;;;;;;;31.57;15.68;;;;;;;1.48;73.90;100677.97;1640210;86;21144;-65
2021/01/11 06:25:31;;;;;;;37.03;17.07;;;;;;;1.49;73.91;100684.84;1640343;86;22000;-65
2021/01/11 06:28:01;;;;;;;36.57;16.30;;;;;;;1.49;74.33;100683.09;1640562;86;21223;-65
2021/01/11 06:30:41;;;;;;;32.60;17.05;;;;;;;1.49;74.19;100691.34;1640462;86;21241;-65
2021/01/11 06:33:25;;;;;;;33.00;16.17;;;;;;;1.40;74.24;100690.10;1641523;86;21254;-64
2021/01/11 06:35:53;;;;;;;33.83;16.80;;;;;;;1.45;74.35;100689.38;1641820;86;21196;-64
2021/01/11 06:38:25;;;;;;;;;;;;;;;1.42;74.31;100698.19;1642409;86;21624;-65
2021/01/11 06:41:07;;;;;;;31.33;15.20;;;;;;;1.41;74.40;100699.13;1643031;86;20610;-64
2021/01/11 06:43:45;;;;;;;32.78;16.42;;;;;;;1.39;74.54;100706.62;1640034;86;21245;-64
2021/01/11 06:46:42;;;;;;;35.75;16.65;;;;;;;1.42;74.74;100698.19;1638290;86;21234;-65
2021/01/11 06:49:04;;;;;;;34.65;17.75;;;;;;;1.42;74.76;100705.16;1640741;86;21627;-64
2021/01/11 06:51:32;;;;;;;37.67;18.30;;;;;;;1.43;74.73;100704.25;1640347;86;21916;-63
2021/01/11 06:54:10;;;;;;;38.17;18.57;;;;;;;1.34;74.76;100699.08;1641518;86;21208;-63
2021/01/11 06:56:37;;;;;;;38.00;17.98;;;;;;;1.35;74.91;100699.46;1640442;86;21287;-64
2021/01/11 06:59:12;;;;;;;40.48;17.92;;;;;;;1.30;75.06;100704.05;1638411;86;21632;-64
2021/01/11 07:01:41;;;;;;;40.98;18.80;;;;;;;1.17;75.32;100708.25;1643902;85;21215;-64
2021/01/11 07:04:08;;;;;;;40.23;18.90;;;;;;;1.20;75.64;100703.72;1637880;86;21616;-65
2021/01/11 07:06:41;;;;;;;39.13;18.80;;;;;;;1.18;75.65;100702.11;1639856;86;21257;-63
2021/01/11 07:09:17;;;;;;;38.48;18.67;;;;;;;1.01;76.04;100698.66;1640476;86;21633;-65
2021/01/11 07:11:50;;;;;;;41.25;19.80;;;;;;;0.94;76.71;100705.09;1639640;86;21265;-65
2021/01/11 07:14:21;;;;;;;41.63;20.02;;;;;;;0.78;77.12;100708.10;1641832;86;21214;-66
2021/01/11 07:16:52;;;;;;;40.03;18.90;;;;;;;0.63;77.69;100707.98;1640092;86;21238;-63
2021/01/11 07:19:23;;;;;;;38.53;17.55;;;;;;;0.63;77.88;100708.45;1638809;85;21242;-64
2021/01/11 07:21:49;;;;;;;36.13;18.85;;;;;;;0.60;77.92;100704.70;1620815;85;21237;-67
2021/01/11 07:24:18;;;;;;;38.80;18.57;;;;;;;0.67;77.80;100700.42;1613465;88;21223;-65
2021/01/11 07:26:43;;;;;;;42.30;18.85;;;;;;;0.64;77.97;100703.64;1606345;88;21206;-65
2021/01/11 07:29:19;;;;;;;38.90;18.83;;;;;;;0.58;78.23;100710.45;1612080;88;21234;-64
2021/01/11 07:31:46;;;;;;;39.10;19.95;;;;;;;0.67;78.22;100706.92;1614262;88;21181;-63
2021/01/11 07:34:16;;;;;;;37.93;18.37;;;;;;;0.65;78.31;100708.77;1607554;88;21672;-65
2021/01/11 07:36:46;;;;;;;37.00;17.42;;;;;;;0.63;78.39;100713.18;1614442;88;21238;-65
2021/01/11 07:39:27;;;;;;;39.30;19.30;;;;;;;0.64;78.52;100713.57;1610433;88;21199;-65
2021/01/11 07:42:05;;;;;;;39.03;18.50;;;;;;;0.73;78.45;100714.01;1614613;88;21322;-65
2021/01/11 07:44:36;;;;;;;39.92;18.80;;;;;;;0.78;78.42;100725.00;1611234;88;21234;-66
2021/01/11 07:47:11;;;;;;;46.28;20.37;;;;;;;0.81;78.23;100723.11;1606828;88;21161;-65
2021/01/11 07:49:50;;;;;;;38.08;18.85;;;;;;;0.73;78.62;100716.61;1603089;88;21273;-66
2021/01/11 07:52:18;;;;;;;40.83;19.25;;;;;;;0.86;78.40;100717.66;1612705;88;21227;-66
2021/01/11 07:54:44;;;;;;;45.63;21.15;;;;;;;0.88;78.41;100722.31;1612666;88;21289;-66
2021/01/11 07:57:14;;;;;;;47.13;22.15;;;;;;;0.79;78.73;100722.80;1604190;88;21610;-66
2021/01/11 07:59:41;;;;;;;47.78;21.52;;;;;;;0.90;78.66;100719.16;1613287;88;21293;-66
2021/01/11 08:02:11;;;;;;;46.42;21.93;;;;;;;0.98;78.53;100722.23;1609075;88;21275;-65
2021/01/11 08:04:37;;;;;;;48.35;22.70;;;;;;;1.01;78.47;100714.70;1607941;88;21697;-65
2021/01/11 08:07:13;;;;;;;42.17;21.07;;;;;;;1.00;78.71;100716.95;1610183;88;21625;-65
2021/01/11 08:09:40;;;;;;;51.77;23.50;;;;;;;1.10;78.72;100712.09;1612095;88;21676;-65
2021/01/11 08:12:15;;;;;;;47.65;23.57;;;;;;;1.12;78.73;100714.14;1612673;88;21260;-65
2021/01/11 08:14:41;;;;;;;50.70;23.18;;;;;;;1.07;78.82;100704.84;1607384;88;21252;-66
2021/01/11 08:17:18;;;;;;;59.42;27.37;;;;;;;1.18;78.82;100717.72;1612458;88;21302;-64
2021/01/11 08:19:51;;;;;;;55.23;24.25;;;;;;;1.03;79.28;100717.62;1590046;88;21451;-65
2021/01/11 08:22:18;;;;;;;56.92;24.35;;;;;;;1.08;79.30;100709.09;1612575;86;21266;-65
2021/01/11 08:24:44;;;;;;;58.10;25.08;;;;;;;1.20;79.27;100708.09;1606605;87;21224;-64
2021/01/11 08:27:19;;;;;;;58.10;26.02;;;;;;;1.26;79.24;100712.97;1596670;87;21805;-64
2021/01/11 08:29:44;;;;;;;58.52;25.25;;;;;;;1.32;79.14;100711.34;1608909;87;21566;-64
2021/01/11 08:32:31;;;;;;;56.00;25.27;;;;;;;1.37;79.04;100709.31;1609736;87;22077;-64
2021/01/11 08:34:57;;;;;;;57.23;26.17;;;;;;;1.37;79.02;100710.61;1626638;87;21219;-64
2021/01/11 08:37:34;;;;;;;65.60;30.57;;;;;;;1.42;79.06;100712.50;1615209;88;20990;-63
2021/01/11 08:40:20;;;;;;;59.53;26.90;;;;;;;1.23;79.50;100713.12;1649338;85;21190;-65
2021/01/11 08:42:47;;;;;;;63.38;27.95;;;;;;;1.35;79.58;100709.01;1647839;85;21277;-65
2021/01/11 08:45:36;;;;;;;60.63;26.70;;;;;;;1.33;79.85;100709.09;1647518;85;21160;-64
2021/01/11 08:48:06;;;;;;;61.83;28.42;;;;;;;1.37;79.76;100708.02;1650474;85;21226;-64
2021/01/11 08:50:35;;;;;;;65.37;29.95;;;;;;;1.27;79.81;100707.29;1614741;88;21243;-66
2021/01/11 08:53:29;;;;;;;62.03;27.70;;;;;;;1.39;79.94;100706.16;1615139;88;21239;-64
2021/01/11 08:56:10;;;;;;;62.13;28.32;;;;;;;1.34;79.97;100705.58;1626348;87;21195;-65
2021/01/11 08:58:35;;;;;;;61.08;27.60;;;;;;;1.39;80.10;100706.62;1614153;87;21235;-65
2021/01/11 09:01:17;;;;;;;71.47;30.17;;;;;;;1.44;80.20;100711.11;1614895;87;21235;-66
2021/01/11 09:03:52;;;;;;;61.37;28.17;;;;;;;1.31;80.58;100695.34;1649246;85;21222;-65
2021/01/11 09:06:45;;;;;;;66.85;30.17;;;;;;;1.49;79.92;100701.75;1646785;84;21258;-64
2021/01/11 09:09:18;;;;;;;63.95;28.42;;;;;;;1.48;79.86;100694.42;1648373;85;21788;-67
2021/01/11 09:11:46;;;;;;;58.80;26.60;;;;;;;1.60;79.78;100699.39;1647011;85;21254;-66
2021/01/11 09:14:18;;;;;;;;;;;;;;;1.60;79.31;100701.99;1649403;85;21639;-66
2021/01/11 09:16:47;;;;;;;54.25;24.50;;;;;;;1.59;79.58;100699.03;1647354;85;20235;-65
2021/01/11 09:19:15;;;;;;;52.38;25.17;;;;;;;1.67;79.43;100695.53;1646419;85;21214;-65
2021/01/11 09:21:42;;;;;;;56.53;25.97;;;;;;;1.57;79.17;100661.81;1648300;85;21234;-66
2021/01/11 09:24:09;;;;;;;54.18;25.27;;;;;;;1.67;78.83;100699.44;1648270;85;21838;-64
2021/01/11 09:26:39;;;;;;;52.60;25.10;;;;;;;1.70;78.67;100697.97;1647048;85;21573;-64
2021/01/11 09:29:08;;;;;;;59.38;28.83;;;;;;;1.68;78.49;100693.31;1647341;85;21202;-65
2021/01/11 09:31:34;;;;;;;54.77;25.77;;;;;;;1.59;78.59;100700.34;1647613;85;21232;-64
2021/01/11 09:33:59;;;;;;;63.85;28.27;;;;;;;1.58;78.84;100699.95;1649743;85;26825;-64
2021/01/11 09:36:34;;;;;;;54.50;25.73;;;;;;;1.51;79.11;100703.80;1650923;85;22045;-64
2021/01/11 09:38:59;;;;;;;56.37;25.62;;;;;;;1.25;79.65;100698.27;1648458;85;21716;-65
2021/01/11 09:41:25;;;;;;;55.17;24.90;;;;;;;1.44;79.00;100695.50;1649760;85;22960;-64
2021/01/11 09:43:51;;;;;;;52.03;24.87;;;;;;;1.42;78.92;100698.19;1653186;85;26887;-65
2021/01/11 09:46:17;;;;;;;53.57;25.30;;;;;;;1.49;78.79;100697.84;1653143;85;25235;-65
2021/01/11 09:48:42;;;;;;;54.00;25.87;;;;;;;1.48;78.84;100696.19;1650144;85;21404;-66
2021/01/11 09:51:08;;;;;;;52.33;26.00;;;;;;;1.53;78.89;100694.99;1651231;85;23562;-64
2021/01/11 09:53:34;;;;;;;51.93;23.97;;;;;;;1.61;78.55;100688.06;1651774;85;20978;-65
2021/01/11 09:56:00;;;;;;;46.25;22.05;;;;;;;1.71;78.09;100687.94;1650245;85;27766;-66
2021/01/11 09:58:25;;;;;;;50.10;22.23;;;;;;;1.68;77.40;100680.30;1652818;85;26258;-65
2021/01/11 10:00:51;;;;;;;52.20;24.37;;;;;;;1.85;77.65;100689.77;1651958;85;23106;-64
2021/01/11 10:03:17;;;;;;;51.90;24.43;;;;;;;1.90;77.55;100686.91;1651627;85;23832;-64
2021/01/11 10:05:42;;;;;;;52.93;24.47;;;;;;;1.95;76.79;100690.08;1650458;85;20966;-64
2021/01/11 10:08:10;;;;;;;49.25;22.60;;;;;;;1.85;77.19;100683.70;1650563;85;28404;-64
2021/01/11 10:10:36;;;;;;;47.53;22.75;;;;;;;1.86;76.16;100686.69;1650733;85;21275;-63
2021/01/11 10:13:01;;;;;;;49.17;23.33;;;;;;;1.87;76.41;100680.09;1651331;85;21267;-64
2021/01/11 10:15:27;;;;;;;49.60;23.13;;;;;;;1.91;76.62;100672.49;1651157;85;23955;-63
2021/01/11 10:17:53;;;;;;;50.53;22.93;;;;;;;2.05;76.67;100669.55;1650479;85;21045;-63
2021/01/11 10:20:19;;;;;;;52.55;22.75;;;;;;;2.00;75.91;100665.90;1651588;85;28492;-63
2021/01/11 10:22:45;;;;;;;46.40;21.07;;;;;;;2.00;75.71;100667.20;1636953;86;26771;-63
2021/01/11 10:25:15;;;;;;;46.13;20.97;;;;;;;2.06;75.77;100667.32;1651435;85;21714;-64
2021/01/11 10:27:38;;;;;;;;;;;;;;;2.17;75.55;100668.00;1653238;85;21262;-63
2021/01/11 10:30:06;;;;;;;41.80;19.85;;;;;;;2.08;74.76;100665.02;1650266;85;20668;-64
2021/01/11 10:32:32;;;;;;;48.23;21.10;;;;;;;2.05;75.01;100664.33;1651472;85;21632;-63
2021/01/11 10:34:59;;;;;;;45.43;21.05;;;;;;;2.25;75.19;100669.25;1652495;85;21176;-64
2021/01/11 10:37:26;;;;;;;45.73;20.45;;;;;;;2.37;74.47;100666.36;1649730;85;21423;-63
2021/01/11 10:39:51;;;;;;;38.10;18.77;;;;;;;2.43;74.43;100661.27;1652358;85;21240;-64
2021/01/11 10:42:17;;;;;;;43.87;21.50;;;;;;;2.41;73.58;100657.89;1652678;85;20938;-63
2021/01/11 10:44:43;;;;;;;43.48;20.75;;;;;;;2.35;73.62;100663.02;1650531;85;28425;-63
2021/01/11 10:47:09;;;;;;;43.87;21.07;;;;;;;2.40;73.72;100657.06;1652213;85;26816;-63
2021/01/11 10:49:34;;;;;;;43.87;20.87;;;;;;;2.34;73.71;100649.61;1650294;85;22617;-63
2021/01/11 10:52:00;;;;;;;42.97;21.33;;;;;;;2.43;73.97;100649.06;1650699;85;26621;-63
2021/01/11 10:54:26;;;;;;;41.93;20.50;;;;;;;2.50;73.54;100647.77;1654006;85;21061;-63
2021/01/11 10:56:52;;;;;;;45.20;22.17;;;;;;;2.47;73.20;100649.27;1650990;85;26837;-62
2021/01/11 10:59:19;;;;;;;45.03;22.05;;;;;;;2.45;73.89;100643.28;1653047;85;21231;-63
2021/01/11 11:01:44;;;;;;;46.00;22.00;;;;;;;2.44;73.28;100639.02;1652107;85;21638;-63
2021/01/11 11:04:11;;;;;;;44.00;22.30;;;;;;;2.57;73.33;100644.80;1650462;85;22083;-62
2021/01/11 11:06:37;;;;;;;47.07;22.20;;;;;;;2.66;73.65;100639.03;1650052;85;21291;-64
2021/01/11 11:09:03;;;;;;;48.68;23.73;;;;;;;2.80;73.55;100631.67;1650223;85;28365;-62
2021/01/11 11:11:29;;;;;;;46.13;23.90;;;;;;;2.86;73.16;100624.77;1652359;85;21207;-63
2021/01/11 11:13:55;;;;;;;47.05;24.37;;;;;;;2.90;73.44;100631.93;1650414;85;21201;-62
2021/01/11 11:16:21;;;;;;;53.23;24.63;;;;;;;2.50;72.31;100632.13;1651824;85;24580;-63
2021/01/11 11:18:47;;;;;;;52.15;24.80;;;;;;;2.78;73.09;100631.77;1649761;85;21255;-63
2021/01/11 11:21:13;;;;;;;47.83;25.02;;;;;;;2.83;73.00;100634.09;1649959;85;28365;-62
2021/01/11 11:23:39;;;;;;;51.55;24.60;;;;;;;2.78;72.51;100626.55;1651218;85;21279;-63
2021/01/11 11:26:05;;;;;;;45.90;22.63;;;;;;;2.87;72.67;100632.50;1649982;85;22995;-64
2021/01/11 11:28:33;;;;;;;45.43;24.52;;;;;;;2.92;71.93;100626.14;1650560;85;21523;-64
2021/01/11 11:30:58;;;;;;;49.18;24.40;;;;;;;2.69;71.81;100618.81;1650934;85;28411;-64